Time;durP1;ratioP1;P1;durP2;ratioP2;P2;SDS_P1;SDS_P2;PMS_P1;PMS_P2;Temp;Humidity;BMP_temperature;BMP_pressure;BME280_temperature;BME280_humidity;BME280_pressure;Samples;Min_cycle;Max_cycle;Signal;HPM_P1;HPM_P2
2020/12/29 00:02:35;;;;;;;;;4.00;4.00;;;;;12.48;44.63;95957.00;6160213;28;97664;-62
2020/12/29 00:05:37;;;;;;;;;5.00;4.00;;;;;12.65;44.26;95959.06;6157118;28;98588;-62
2020/12/29 00:08:38;;;;;;;;;5.00;5.00;;;;;12.89;43.73;95950.66;6151309;28;97659;-62
2020/12/29 00:11:44;;;;;;;;;3.60;3.60;;;;;12.69;44.12;95945.75;6148871;28;96498;-62
2020/12/29 00:14:46;;;;;;;;;3.75;3.75;;;;;12.41;43.90;95904.53;6161384;28;97151;-62
2020/12/29 00:17:48;;;;;;;;;3.00;3.00;;;;;12.54;44.60;95938.78;6161487;28;97478;-63
2020/12/29 00:20:49;;;;;;;;;4.00;4.00;;;;;12.23;45.23;95940.56;6161082;28;96909;-62
2020/12/29 00:23:51;;;;;;;;;4.00;4.00;;;;;12.30;45.06;95939.06;6144258;28;97004;-62
2020/12/29 00:26:53;;;;;;;;;4.00;4.00;;;;;12.56;44.26;95910.34;6161372;28;97550;-62
2020/12/29 00:29:54;;;;;;;;;5.00;5.00;;;;;11.97;45.52;95916.03;6160478;28;96609;-62
2020/12/29 00:32:56;;;;;;;;;4.50;4.50;;;;;12.34;44.94;95925.75;6145936;28;97236;-62
2020/12/29 00:35:57;;;;;;;;;5.40;5.00;;;;;12.14;44.87;95926.97;6160867;28;96845;-62
2020/12/29 00:38:59;;;;;;;;;4.00;4.00;;;;;12.25;45.32;95909.47;6160744;28;96664;-62
2020/12/29 00:42:00;;;;;;;;;3.00;3.00;;;;;11.61;46.27;95878.94;6143313;28;97221;-62
2020/12/29 00:45:02;;;;;;;;;4.25;4.25;;;;;12.02;45.70;95911.28;6150927;28;97552;-62
2020/12/29 00:48:05;;;;;;;;;5.00;3.00;;;;;12.49;44.78;95892.97;6133920;28;98009;-62
2020/12/29 00:51:15;;;;;;;;;5.00;4.00;;;;;12.21;45.14;95908.47;6151180;28;98558;-62
2020/12/29 00:54:25;;;;;;;;;5.00;5.00;;;;;12.44;44.93;95901.19;6161208;28;96763;-63
2020/12/29 00:57:26;;;;;;;;;4.00;4.00;;;;;12.63;44.53;95906.41;6154434;28;98615;-61
2020/12/29 01:00:28;;;;;;;;;5.00;5.00;;;;;12.46;44.84;95893.59;6140320;28;97144;-61
2020/12/29 01:03:38;;;;;;;;;4.00;4.00;;;;;12.67;44.60;95899.28;6160596;28;97819;-61
2020/12/29 01:06:40;;;;;;;;;4.00;4.00;;;;;12.34;45.29;95887.91;6154102;28;97223;-61
2020/12/29 01:09:49;;;;;;;;;5.00;4.40;;;;;12.66;44.50;95892.31;6157506;28;97530;-61
2020/12/29 01:12:51;;;;;;;;;4.00;4.00;;;;;12.54;44.97;95909.06;6149553;28;97654;-61
2020/12/29 01:15:53;;;;;;;;;4.40;4.00;;;;;12.41;45.22;95902.59;6142256;28;97479;-62
2020/12/29 01:18:55;;;;;;;;;5.00;5.00;;;;;12.20;44.90;95841.25;6153021;28;99454;-61
2020/12/29 01:21:57;;;;;;;;;4.00;4.00;;;;;12.72;44.46;95902.66;6148808;28;97303;-63
2020/12/29 01:24:58;;;;;;;;;4.00;4.00;;;;;13.06;43.88;95882.34;6160662;28;97152;-62
2020/12/29 01:28:00;;;;;;;;;4.00;4.00;;;;;12.73;43.78;95861.03;6160054;28;98195;-63
2020/12/29 01:31:03;;;;;;;;;4.00;4.00;;;;;12.90;44.22;95881.97;6159636;28;97283;-61
2020/12/29 01:34:04;;;;;;;;;6.00;5.00;;;;;12.77;44.30;95855.81;6132173;28;96745;-61
2020/12/29 01:37:05;;;;;;;;;2.00;2.00;;;;;12.57;44.87;95876.03;6144829;28;96991;-62
2020/12/29 01:40:08;;;;;;;;;5.00;5.00;;;;;12.72;44.60;95870.25;6160494;28;97192;-62
2020/12/29 01:43:10;;;;;;;;;4.00;3.00;;;;;12.95;44.26;95855.59;6159170;28;97742;-61
2020/12/29 01:46:11;;;;;;;;;4.00;4.00;;;;;12.77;44.76;95853.09;6150827;28;97325;-61
2020/12/29 01:49:13;;;;;;;;;3.60;3.60;;;;;12.67;44.08;95816.31;6145488;28;97119;-61
2020/12/29 01:52:15;;;;;;;;;4.20;4.00;;;;;13.03;44.14;95848.63;6160081;28;97489;-62
2020/12/29 01:55:16;;;;;;;;;5.00;3.25;;;;;12.99;43.99;95848.47;6144143;28;96654;-61
2020/12/29 01:58:18;;;;;;;;;6.00;5.60;;;;;12.98;44.01;95838.75;6150407;28;97290;-62
2020/12/29 02:01:19;;;;;;;;;5.00;4.00;;;;;12.90;44.11;95836.78;6143021;28;97869;-62
2020/12/29 02:04:24;;;;;;;;;3.50;3.00;;;;;12.93;43.91;95822.66;6153306;28;97289;-62
2020/12/29 02:07:27;;;;;;;;;4.00;3.00;;;;;13.18;43.45;95856.38;6159629;28;97170;-61
2020/12/29 02:10:28;;;;;;;;;4.00;4.00;;;;;13.35;43.13;95848.31;6160246;28;96586;-61
2020/12/29 02:13:39;;;;;;;;;2.00;2.00;;;;;13.35;42.97;95847.53;6143642;28;97452;-62
2020/12/29 02:16:42;;;;;;;;;5.00;5.00;;;;;13.39;43.03;95848.47;6159775;28;96654;-61
2020/12/29 02:19:44;;;;;;;;;4.25;4.25;;;;;13.59;42.76;95850.63;6159368;28;98035;-61
2020/12/29 02:22:46;;;;;;;;;4.00;3.00;;;;;13.70;42.53;95826.75;6159369;28;97241;-62
2020/12/29 02:25:47;;;;;;;;;2.80;2.80;;;;;13.63;42.39;95823.75;6153639;28;97438;-61
2020/12/29 02:28:48;;;;;;;;;4.00;4.00;;;;;13.58;42.64;95819.28;6141925;28;97727;-62
2020/12/29 02:31:50;;;;;;;;;4.00;4.00;;;;;13.77;42.24;95824.41;6157790;28;97010;-63
2020/12/29 02:34:52;;;;;;;;;3.00;3.00;;;;;13.23;42.70;95771.59;6159433;28;97132;-62
2020/12/29 02:37:54;;;;;;;;;6.00;6.00;;;;;13.58;42.57;95805.75;6159358;28;97716;-63
2020/12/29 02:40:55;;;;;;;;;5.00;5.00;;;;;13.47;42.42;95760.34;6159917;28;98695;-62
2020/12/29 02:43:56;;;;;;;;;3.80;3.00;;;;;13.87;41.99;95800.53;6158802;28;97736;-62
2020/12/29 02:46:59;;;;;;;;;5.00;5.00;;;;;13.80;42.26;95799.41;6145915;28;97277;-62
2020/12/29 02:50:00;;;;;;;;;3.00;3.00;;;;;13.88;42.01;95796.69;6155332;28;98724;-63
2020/12/29 02:53:02;;;;;;;;;4.00;4.00;;;;;13.80;42.28;95808.31;6140338;28;99517;-62
2020/12/29 02:56:04;;;;;;;;;4.00;3.00;;;;;13.60;42.53;95818.94;6163403;28;97043;-62
2020/12/29 02:59:06;;;;;;;;;4.00;4.00;;;;;13.36;42.81;95787.69;6153514;28;98006;-62
2020/12/29 03:02:07;;;;;;;;;1.00;1.00;;;;;13.47;43.28;95817.16;6162853;28;97027;-62
2020/12/29 03:05:08;;;;;;;;;3.00;3.00;;;;;13.39;43.42;95824.94;6162240;28;97706;-62
2020/12/29 03:08:10;;;;;;;;;2.20;2.20;;;;;13.46;43.49;95821.78;6153165;28;97038;-62
2020/12/29 03:11:12;;;;;;;;;3.00;3.00;;;;;13.33;44.21;95809.19;6146476;28;96539;-63
2020/12/29 03:14:14;;;;;;;;;2.00;2.00;;;;;13.17;44.70;95783.66;6154140;28;97095;-62
2020/12/29 03:17:15;;;;;;;;;2.00;2.00;;;;;13.44;44.61;95762.56;6128074;28;97608;-61
2020/12/29 03:20:16;;;;;;;;;2.00;2.00;;;;;13.06;44.96;95723.63;6163245;28;97004;-61
2020/12/29 03:23:18;;;;;;;;;2.00;2.00;;;;;13.12;45.38;95741.31;6162707;28;97468;-61
2020/12/29 03:26:20;;;;;;;;;2.00;2.00;;;;;13.30;45.00;95751.06;6159958;28;98118;-63
2020/12/29 03:29:21;;;;;;;;;2.00;2.00;;;;;13.21;45.05;95733.22;6160002;28;97092;-62
2020/12/29 03:32:23;;;;;;;;;2.00;2.00;;;;;12.97;45.63;95739.03;6151716;28;96702;-62
2020/12/29 03:35:24;;;;;;;;;2.00;2.00;;;;;12.90;45.43;95733.28;6154799;28;98423;-62
2020/12/29 03:38:26;;;;;;;;;2.20;2.20;;;;;13.12;44.92;95727.81;6156440;28;97345;-61
2020/12/29 03:41:28;;;;;;;;;1.00;1.00;;;;;13.12;44.34;95697.25;6163105;28;96832;-62
2020/12/29 03:44:29;;;;;;;;;2.00;2.00;;;;;13.34;44.15;95727.69;6162111;28;96714;-62
2020/12/29 03:47:31;;;;;;;;;2.00;2.00;;;;;13.19;44.27;95717.34;6149429;28;97566;-62
2020/12/29 03:50:32;;;;;;;;;2.60;2.00;;;;;13.37;43.98;95713.53;6161964;28;96628;-62
2020/12/29 03:53:33;;;;;;;;;1.00;1.00;;;;;13.19;43.91;95713.84;6153550;28;97479;-62
2020/12/29 03:56:35;;;;;;;;;1.00;1.00;;;;;13.24;43.96;95716.38;6139792;28;99388;-62
2020/12/29 03:59:36;;;;;;;;;1.00;1.00;;;;;13.07;44.27;95709.00;6145598;28;97531;-62
2020/12/29 04:02:38;;;;;;;;;1.80;1.80;;;;;13.16;44.09;95720.66;6161984;28;96990;-62
2020/12/29 04:05:39;;;;;;;;;1.00;1.00;;;;;13.13;44.25;95728.59;6148778;28;97774;-62
2020/12/29 04:08:41;;;;;;;;;1.75;1.75;;;;;12.84;44.41;95702.09;6149239;28;97501;-61
2020/12/29 04:11:42;;;;;;;;;2.00;2.00;;;;;12.55;45.26;95708.81;6153589;28;96893;-61
2020/12/29 04:14:43;;;;;;;;;1.00;1.00;;;;;12.69;45.13;95738.44;6136311;28;98112;-62
2020/12/29 04:17:45;;;;;;;;;1.20;1.20;;;;;12.58;45.33;95727.09;6130039;28;97054;-63
2020/12/29 04:20:46;;;;;;;;;2.00;2.00;;;;;12.48;45.76;95721.97;6162235;28;97626;-62
2020/12/29 04:23:48;;;;;;;;;1.00;1.00;;;;;12.36;45.76;95713.66;6147554;28;97995;-62
2020/12/29 04:26:49;;;;;;;;;2.00;2.00;;;;;12.43;45.63;95715.91;6144955;28;98459;-62
2020/12/29 04:29:50;;;;;;;;;1.00;1.00;;;;;12.11;46.62;95719.69;6160001;28;97200;-62
2020/12/29 04:32:52;;;;;;;;;1.00;1.00;;;;;11.83;46.23;95645.34;6160556;28;97519;-62
2020/12/29 04:35:53;;;;;;;;;1.00;1.00;;;;;11.92;46.12;95655.13;6150944;28;97215;-62
2020/12/29 04:38:54;;;;;;;;;1.00;1.00;;;;;12.30;46.14;95706.00;6160846;28;96681;-62
2020/12/29 04:42:02;;;;;;;;;1.40;1.40;;;;;11.76;46.72;95680.88;6144855;28;96983;-62
2020/12/29 04:45:05;;;;;;;;;1.00;0.40;;;;;11.89;46.53;95674.59;6159615;28;97712;-62
2020/12/29 04:48:08;;;;;;;;;1.00;1.00;;;;;12.23;46.21;95709.13;6146034;28;97391;-62
2020/12/29 04:51:09;;;;;;;;;1.00;1.00;;;;;12.11;46.49;95704.31;6159960;28;96875;-62
2020/12/29 04:54:17;;;;;;;;;2.00;1.75;;;;;12.08;45.66;95687.91;6152465;28;96441;-61
2020/12/29 04:57:20;;;;;;;;;1.00;1.00;;;;;12.42;45.46;95717.78;6151580;28;97137;-61
2020/12/29 05:00:26;;;;;;;;;0.00;0.00;;;;;12.24;45.85;95731.53;6161665;28;97113;-62
2020/12/29 05:03:40;;;;;;;;;0.00;0.00;;;;;12.05;46.19;95739.81;6160516;28;96953;-62
2020/12/29 05:06:43;;;;;;;;;0.00;0.00;;;;;12.15;44.87;95691.78;6156782;28;96701;-62
2020/12/29 05:09:46;;;;;;;;;1.00;1.00;;;;;12.65;44.67;95755.59;6142308;28;97524;-62
2020/12/29 05:12:51;;;;;;;;;1.00;1.00;;;;;12.39;44.69;95729.22;6160682;28;96914;-62
2020/12/29 05:15:53;;;;;;;;;1.00;1.00;;;;;12.82;44.12;95767.28;6160953;28;97567;-62
2020/12/29 05:18:56;;;;;;;;;1.00;1.00;;;;;12.90;43.95;95782.72;6160369;28;98680;-63
2020/12/29 05:21:58;;;;;;;;;0.00;0.00;;;;;12.98;43.85;95771.16;6150492;28;97484;-62
2020/12/29 05:24:59;;;;;;;;;1.00;1.00;;;;;13.22;43.45;95773.50;6157720;28;97131;-62
2020/12/29 05:28:01;;;;;;;;;1.00;1.00;;;;;12.85;43.63;95745.00;6152776;28;97624;-62
2020/12/29 05:31:04;;;;;;;;;1.00;1.00;;;;;13.06;43.70;95787.72;6160573;28;97466;-62
2020/12/29 05:34:05;;;;;;;;;1.00;1.00;;;;;13.06;43.71;95793.13;6157000;28;96701;-62
2020/12/29 05:37:14;;;;;;;;;1.00;1.00;;;;;12.99;43.20;95771.97;6160305;28;97068;-62
2020/12/29 05:40:23;;;;;;;;;1.00;1.00;;;;;13.03;43.67;95799.97;6160392;28;97597;-62
2020/12/29 05:43:27;;;;;;;;;1.00;1.00;;;;;13.01;43.49;95804.88;6144443;28;98969;-61
2020/12/29 05:46:29;;;;;;;;;1.00;1.00;;;;;13.32;42.90;95819.19;6160483;28;97710;-62
2020/12/29 05:49:31;;;;;;;;;2.00;2.00;;;;;13.49;42.64;95833.91;6160312;28;96995;-61
2020/12/29 05:52:34;;;;;;;;;2.00;2.00;;;;;13.58;42.63;95842.84;6158600;28;97685;-61
2020/12/29 05:55:35;;;;;;;;;2.00;2.00;;;;;13.59;42.80;95836.28;6155307;28;97578;-63
2020/12/29 05:58:37;;;;;;;;;2.00;2.00;;;;;13.66;42.30;95839.34;6160123;28;96594;-63
2020/12/29 06:01:41;;;;;;;;;2.40;2.40;;;;;13.78;42.30;95828.72;6144023;28;97578;-62
2020/12/29 06:04:44;;;;;;;;;1.00;1.00;;;;;13.74;42.18;95814.19;6149799;28;97264;-62
2020/12/29 06:07:47;;;;;;;;;3.00;3.00;;;;;13.80;41.41;95853.53;6139178;28;96968;-61
2020/12/29 06:10:58;;;;;;;;;2.00;2.00;;;;;13.73;41.33;95845.88;6149631;28;97620;-62
2020/12/29 06:14:01;;;;;;;;;1.40;1.40;;;;;13.84;41.07;95865.31;6159614;28;98283;-62
2020/12/29 06:17:15;;;;;;;;;1.00;1.00;;;;;13.86;41.04;95876.66;6160044;28;97142;-63
2020/12/29 06:20:17;;;;;;;;;1.00;1.00;;;;;13.56;41.20;95837.72;6159777;28;97171;-61
2020/12/29 06:23:19;;;;;;;;;2.00;2.00;;;;;13.54;41.08;95842.66;6163291;28;97367;-62
2020/12/29 06:26:32;;;;;;;;;1.00;1.00;;;;;13.91;40.70;95891.94;6146480;28;96861;-62
2020/12/29 06:29:42;;;;;;;;;2.00;2.00;;;;;13.92;40.86;95901.69;6159610;28;98055;-62
2020/12/29 06:32:46;;;;;;;;;2.00;1.60;;;;;14.02;40.89;95913.00;6153013;28;96624;-63
2020/12/29 06:35:53;;;;;;;;;1.00;1.00;;;;;14.11;40.69;95924.66;6164037;28;97057;-63
2020/12/29 06:38:59;;;;;;;;;2.00;2.00;;;;;14.23;40.53;95935.66;6163811;28;97746;-62
2020/12/29 06:42:02;;;;;;;;;3.00;2.60;;;;;14.29;40.58;95937.13;6145104;28;96511;-62
2020/12/29 06:45:07;;;;;;;;;2.40;2.00;;;;;14.32;40.41;95966.28;6162481;28;97574;-62
2020/12/29 06:48:16;;;;;;;;;2.00;2.00;;;;;14.06;40.51;95954.59;6135836;28;96537;-62
2020/12/29 06:51:17;;;;;;;;;3.00;2.00;;;;;14.08;40.38;95978.66;6134458;28;97422;-62
2020/12/29 06:54:53;;;;;;;;;2.00;2.00;;;;;14.04;40.59;95980.38;6162713;28;97471;-63
2020/12/29 06:57:55;;;;;;;;;2.00;1.00;;;;;13.99;40.58;96002.19;6162587;28;96929;-62
2020/12/29 07:01:19;;;;;;;;;3.00;2.00;;;;;13.95;40.41;96021.00;6141745;28;97277;-62
2020/12/29 07:04:20;;;;;;;;;2.00;1.00;;;;;13.76;40.62;96026.66;6161382;28;96652;-62
2020/12/29 07:07:32;;;;;;;;;1.00;1.00;;;;;13.48;40.94;96076.63;6160024;28;97053;-62
2020/12/29 07:10:42;;;;;;;;;1.00;1.00;;;;;13.55;41.00;96068.88;6158350;28;98644;-62
2020/12/29 07:13:53;;;;;;;;;1.00;1.00;;;;;13.44;41.40;96111.63;6162491;28;97102;-62
2020/12/29 07:16:56;;;;;;;;;1.00;1.00;;;;;13.25;41.85;96116.41;6162795;28;96730;-62
2020/12/29 07:19:57;;;;;;;;;2.00;2.00;;;;;13.20;41.71;96107.59;6161741;28;97472;-61
2020/12/29 07:23:06;;;;;;;;;2.00;2.00;;;;;13.35;41.84;96128.88;6143084;28;99572;-61
2020/12/29 07:26:10;;;;;;;;;2.00;2.00;;;;;13.37;42.13;96141.03;6146145;28;97642;-62
2020/12/29 07:29:11;;;;;;;;;3.00;3.00;;;;;13.12;42.27;96148.91;6154263;28;97452;-62
2020/12/29 07:32:13;;;;;;;;;1.00;1.00;;;;;13.15;42.65;96191.56;6162337;28;97054;-62
2020/12/29 07:35:18;;;;;;;;;2.00;2.00;;;;;12.93;43.16;96203.91;6162415;28;97064;-62
2020/12/29 07:38:24;;;;;;;;;2.67;2.00;;;;;12.91;43.51;96202.56;6162050;28;97081;-62
2020/12/29 07:41:27;;;;;;;;;1.00;1.00;;;;;12.83;43.44;96222.22;6161703;28;97486;-62
2020/12/29 07:44:28;;;;;;;;;1.20;1.20;;;;;12.94;43.14;96235.25;6162322;28;97064;-62
2020/12/29 07:47:29;;;;;;;;;2.00;2.00;;;;;12.90;42.75;96247.75;6161828;28;96489;-61
2020/12/29 07:50:35;;;;;;;;;3.00;3.00;;;;;13.26;42.49;96261.38;6161931;28;97042;-62
2020/12/29 07:53:36;;;;;;;;;3.00;3.00;;;;;13.24;41.20;96212.19;6128382;28;96814;-62
2020/12/29 07:56:38;;;;;;;;;3.40;3.00;;;;;15.18;38.40;96266.72;6161808;28;98132;-62
2020/12/29 07:59:40;;;;;;;;;2.00;2.00;;;;;16.80;35.28;96250.81;6161306;28;96929;-62
2020/12/29 08:02:49;;;;;;;;;3.00;3.00;;;;;18.40;31.71;96272.22;6161231;28;96894;-61
2020/12/29 08:05:51;;;;;;;;;2.00;2.00;;;;;19.68;29.73;96301.97;6154089;28;97650;-61
2020/12/29 08:09:00;;;;;;;;;2.00;2.00;;;;;20.62;27.67;96310.63;6139750;28;97958;-62
2020/12/29 08:12:02;;;;;;;;;1.80;1.80;;;;;20.34;27.80;96304.38;6160480;28;96610;-62
2020/12/29 08:15:08;;;;;;;;;2.00;2.00;;;;;20.83;27.36;96304.97;6161855;28;96780;-61
2020/12/29 08:18:20;;;;;;;;;2.00;2.00;;;;;20.19;28.02;96326.94;6142280;28;97085;-63
2020/12/29 08:21:21;;;;;;;;;3.00;2.00;;;;;20.94;26.68;96355.34;6160910;28;97046;-63
2020/12/29 08:24:23;;;;;;;;;2.00;2.00;;;;;21.40;25.63;96339.38;6160383;28;96572;-63
2020/12/29 08:27:24;;;;;;;;;2.00;2.00;;;;;22.11;24.03;96369.31;6162978;28;97484;-63
2020/12/29 08:30:27;;;;;;;;;3.00;3.00;;;;;22.85;23.12;96378.41;6166337;28;97439;-62
2020/12/29 08:33:30;;;;;;;;;3.00;3.00;;;;;23.66;22.27;96368.94;6159342;28;97901;-63
2020/12/29 08:36:35;;;;;;;;;2.50;2.00;;;;;24.02;21.13;96384.09;6159927;28;96486;-63
2020/12/29 08:40:06;;;;;;;;;3.00;3.00;;;;;23.93;20.54;96408.31;6161246;28;98604;-63
2020/12/29 08:43:28;;;;;;;;;1.20;1.20;;;;;24.09;20.71;96389.69;6154568;28;96769;-63
2020/12/29 08:46:34;;;;;;;;;2.25;2.00;;;;;23.70;20.67;96405.56;6160365;28;96905;-62
2020/12/29 08:49:35;;;;;;;;;2.00;2.00;;;;;23.74;20.42;96416.63;6156574;28;97342;-63
2020/12/29 08:52:37;;;;;;;;;2.00;2.00;;;;;24.31;19.99;96431.34;6148733;28;98001;-61
2020/12/29 08:55:40;;;;;;;;;1.20;1.00;;;;;24.44;19.90;96430.75;6153066;28;97556;-62
2020/12/29 08:58:43;;;;;;;;;3.00;2.40;;;;;24.84;19.46;96454.16;6150329;28;96878;-62
2020/12/29 09:01:55;;;;;;;;;3.00;2.00;;;;;24.92;19.51;96467.69;6158717;28;96798;-62
2020/12/29 09:04:58;;;;;;;;;2.00;2.00;;;;;24.76;19.33;96456.03;6134901;28;97643;-63
2020/12/29 09:07:59;;;;;;;;;2.00;2.00;;;;;24.90;18.89;96459.00;6111731;28;96799;-62
2020/12/29 09:11:27;;;;;;;;;2.00;2.00;;;;;24.93;18.88;96476.75;6161535;28;96914;-63
2020/12/29 09:14:28;;;;;;;;;3.00;3.00;;;;;24.73;19.42;96454.00;6144804;28;98127;-63
2020/12/29 09:17:32;;;;;;;;;2.00;2.00;;;;;25.10;18.78;96484.47;6144594;28;97624;-64
2020/12/29 09:20:34;;;;;;;;;2.00;2.00;;;;;24.74;19.32;96469.38;6160878;28;98483;-62
2020/12/29 09:23:35;;;;;;;;;1.33;1.33;;;;;25.13;18.73;96486.47;6160274;28;97107;-62
2020/12/29 09:26:47;;;;;;;;;2.00;2.00;;;;;25.09;18.74;96485.63;6159777;28;97104;-62
2020/12/29 09:29:49;;;;;;;;;2.00;2.00;;;;;25.56;18.23;96501.59;6145234;28;98627;-62
2020/12/29 09:32:51;;;;;;;;;2.00;2.00;;;;;25.28;17.91;96520.53;6160317;28;98031;-62
2020/12/29 09:35:53;;;;;;;;;2.00;2.00;;;;;25.11;18.05;96541.22;6139055;28;98287;-62
2020/12/29 09:38:55;;;;;;;;;1.20;1.00;;;;;24.43;18.25;96546.81;6151271;28;97582;-62
2020/12/29 09:41:56;;;;;;;;;2.00;2.00;;;;;24.86;18.37;96545.53;6153524;28;97511;-62
2020/12/29 09:44:57;;;;;;;;;2.00;2.00;;;;;25.28;17.89;96553.63;6150050;28;97505;-62
2020/12/29 09:47:59;;;;;;;;;1.40;1.40;;;;;25.06;18.20;96555.31;6160334;28;98009;-63
2020/12/29 09:51:00;;;;;;;;;1.00;1.00;;;;;25.28;17.47;96557.19;6154410;28;96927;-62
2020/12/29 09:54:02;;;;;;;;;2.00;2.00;;;;;25.21;17.76;96540.56;6144354;28;97431;-62
2020/12/29 09:57:03;;;;;;;;;2.00;2.00;;;;;25.61;17.81;96553.69;6163560;28;97207;-63
2020/12/29 10:00:06;;;;;;;;;2.00;2.00;;;;;25.55;17.49;96569.00;6152770;28;96579;-63
2020/12/29 10:03:14;;;;;;;;;4.00;3.50;;;;;25.48;17.37;96541.28;6162968;28;96770;-63
2020/12/29 10:06:15;;;;;;;;;2.00;2.00;;;;;25.82;16.89;96578.78;6133319;28;99949;-63
2020/12/29 10:09:17;;;;;;;;;2.00;2.00;;;;;25.74;17.58;96581.84;6147642;28;97477;-63
2020/12/29 10:12:18;;;;;;;;;2.00;2.00;;;;;25.12;17.38;96589.63;6157186;28;97551;-63
2020/12/29 10:15:20;;;;;;;;;2.00;2.00;;;;;25.68;17.13;96595.19;6162048;28;96912;-63
2020/12/29 10:18:21;;;;;;;;;2.60;2.00;;;;;25.59;17.20;96591.91;6164200;28;97138;-63
2020/12/29 10:21:22;;;;;;;;;2.00;1.60;;;;;25.62;17.31;96626.22;6159091;28;96808;-63
2020/12/29 10:24:24;;;;;;;;;2.00;2.00;;;;;25.53;17.13;96609.94;6164338;28;96583;-63
2020/12/29 10:27:25;;;;;;;;;2.00;2.00;;;;;25.54;16.91;96643.84;6160664;28;96909;-63
2020/12/29 10:30:27;;;;;;;;;2.00;2.00;;;;;25.78;16.95;96632.34;6149396;28;96877;-63
2020/12/29 10:33:28;;;;;;;;;3.60;3.00;;;;;25.45;16.98;96591.69;6153798;28;97120;-63
2020/12/29 10:36:34;;;;;;;;;3.00;2.00;;;;;25.77;17.06;96637.09;6151861;28;97280;-63
2020/12/29 10:39:35;;;;;;;;;2.00;2.00;;;;;26.00;16.93;96650.00;6159494;28;97050;-62
2020/12/29 10:42:37;;;;;;;;;2.25;2.00;;;;;25.99;16.82;96648.41;6163382;28;97055;-63
2020/12/29 10:45:38;;;;;;;;;1.00;1.00;;;;;25.76;16.64;96629.16;6147079;28;97587;-64
2020/12/29 10:48:39;;;;;;;;;2.00;2.00;;;;;26.06;16.78;96674.13;6137134;28;97672;-62
2020/12/29 10:51:41;;;;;;;;;1.80;1.00;;;;;26.21;16.66;96645.53;6155133;28;98017;-62
2020/12/29 10:54:42;;;;;;;;;2.00;2.00;;;;;26.42;16.41;96660.75;6156018;28;97631;-63
2020/12/29 10:57:43;;;;;;;;;3.00;2.00;;;;;26.59;16.42;96663.69;6161606;28;97542;-63
2020/12/29 11:00:47;;;;;;;;;1.00;1.00;;;;;26.93;16.06;96678.25;6163057;28;97687;-63
2020/12/29 11:03:49;;;;;;;;;1.00;1.00;;;;;26.91;15.77;96666.00;6156472;28;96803;-64
2020/12/29 11:06:51;;;;;;;;;4.00;3.00;;;;;27.05;15.72;96688.25;6152470;28;96577;-63
2020/12/29 11:09:52;;;;;;;;;2.00;2.00;;;;;27.27;15.60;96665.09;6162966;28;96551;-62
2020/12/29 11:12:54;;;;;;;;;1.00;1.00;;;;;27.09;15.78;96681.56;6151974;28;97552;-62
2020/12/29 11:15:55;;;;;;;;;3.00;3.00;;;;;27.02;15.68;96686.25;6130104;28;96633;-62
2020/12/29 11:18:57;;;;;;;;;2.00;2.00;;;;;26.56;15.85;96644.31;6153631;28;96962;-64
2020/12/29 11:21:58;;;;;;;;;3.00;2.00;;;;;26.45;16.15;96651.69;6155343;28;98709;-62
2020/12/29 11:25:01;;;;;;;;;2.60;2.60;;;;;26.29;15.95;96679.56;6140735;28;97199;-62
2020/12/29 11:28:02;;;;;;;;;3.00;3.00;;;;;26.67;15.87;96711.53;6154527;28;97285;-64
2020/12/29 11:31:04;;;;;;;;;2.00;2.00;;;;;26.39;16.07;96680.84;6162185;28;97179;-62
2020/12/29 11:34:06;;;;;;;;;3.00;3.00;;;;;26.14;16.09;96675.00;6156560;28;98733;-64
2020/12/29 11:37:07;;;;;;;;;2.00;2.00;;;;;26.05;16.06;96705.66;6146403;28;98108;-62
2020/12/29 11:40:09;;;;;;;;;1.75;1.75;;;;;26.15;15.79;96710.50;6161939;28;98317;-62
2020/12/29 11:43:12;;;;;;;;;2.00;1.50;;;;;26.41;16.15;96728.22;6155527;28;96924;-61
2020/12/29 11:46:14;;;;;;;;;2.00;2.00;;;;;26.11;15.96;96728.22;6162014;28;96754;-62
2020/12/29 11:49:15;;;;;;;;;2.00;2.00;;;;;25.67;15.82;96703.97;6163201;28;98757;-63
2020/12/29 11:52:18;;;;;;;;;2.00;2.00;;;;;25.95;16.14;96761.53;6159338;28;99989;-62
2020/12/29 11:55:19;;;;;;;;;2.00;2.00;;;;;25.68;16.17;96765.47;6162594;28;96955;-63
2020/12/29 11:58:20;;;;;;;;;1.60;1.60;;;;;25.13;16.57;96739.31;6162163;28;97596;-62
2020/12/29 12:01:22;;;;;;;;;2.00;2.00;;;;;25.08;16.58;96745.94;6162276;28;96612;-61
2020/12/29 12:04:23;;;;;;;;;2.40;2.40;;;;;25.39;16.46;96745.69;6160965;28;97651;-62
2020/12/29 12:07:24;;;;;;;;;3.00;3.00;;;;;25.22;17.06;96720.56;6161700;28;97790;-64
2020/12/29 12:10:26;;;;;;;;;2.00;2.00;;;;;25.07;17.78;96766.41;6161322;28;97425;-62
2020/12/29 12:13:28;;;;;;;;;2.00;2.00;;;;;24.76;17.91;96753.63;6156085;28;98214;-63
2020/12/29 12:16:29;;;;;;;;;3.00;3.00;;;;;24.30;18.70;96769.22;6132766;28;96862;-63
2020/12/29 12:19:31;;;;;;;;;5.00;3.25;;;;;23.85;18.73;96772.53;6138554;28;99530;-62
2020/12/29 12:22:32;;;;;;;;;2.50;2.00;;;;;23.05;19.46;96763.91;6148983;28;97910;-62
2020/12/29 12:25:34;;;;;;;;;4.00;3.00;;;;;22.79;19.79;96775.38;6146821;28;97089;-62
2020/12/29 12:28:37;;;;;;;;;4.00;4.00;;;;;22.79;19.86;96789.94;6160910;28;97511;-62
2020/12/29 12:31:38;;;;;;;;;4.00;3.00;;;;;22.62;20.11;96770.19;6162218;28;96746;-62
2020/12/29 12:34:40;;;;;;;;;3.25;3.00;;;;;22.40;19.95;96768.78;6155466;28;98988;-62
2020/12/29 12:37:41;;;;;;;;;1.00;1.00;;;;;22.32;20.54;96769.75;6161133;28;97090;-62
2020/12/29 12:40:43;;;;;;;;;3.00;3.00;;;;;21.60;20.67;96782.44;6149184;28;98011;-62
2020/12/29 12:43:45;;;;;;;;;2.33;2.33;;;;;21.40;21.07;96794.34;6161992;28;97775;-63
2020/12/29 12:46:47;;;;;;;;;4.60;4.00;;;;;20.86;21.19;96794.47;6160106;28;97059;-63
2020/12/29 12:49:49;;;;;;;;;3.00;3.00;;;;;20.77;21.72;96798.44;6161289;28;96714;-63
2020/12/29 12:52:50;;;;;;;;;3.00;3.00;;;;;20.71;21.62;96814.25;6161601;28;98060;-61
2020/12/29 12:55:52;;;;;;;;;2.00;2.00;;;;;20.50;21.56;96816.22;6160811;28;97640;-62
2020/12/29 12:58:53;;;;;;;;;2.60;2.60;;;;;19.97;22.29;96790.41;6160486;28;97677;-61
2020/12/29 13:01:55;;;;;;;;;4.00;4.00;;;;;19.99;22.19;96829.13;6160559;28;96774;-62
2020/12/29 13:04:57;;;;;;;;;2.60;2.60;;;;;19.72;22.08;96835.91;6160887;28;97150;-62
2020/12/29 13:07:59;;;;;;;;;2.00;2.00;;;;;19.69;22.23;96820.19;6161287;28;97747;-61
2020/12/29 13:11:00;;;;;;;;;2.00;2.00;;;;;19.64;22.11;96844.97;6161310;28;97020;-62
2020/12/29 13:14:02;;;;;;;;;2.40;2.40;;;;;19.25;22.37;96858.94;6161230;28;96774;-62
2020/12/29 13:17:03;;;;;;;;;2.00;2.00;;;;;18.80;23.01;96853.91;6161530;28;97042;-62
2020/12/29 13:20:10;;;;;;;;;3.00;3.00;;;;;18.47;23.18;96861.75;6145114;28;96683;-63
2020/12/29 13:23:11;;;;;;;;;2.00;2.00;;;;;18.08;23.72;96857.25;6152057;28;98073;-63
2020/12/29 13:26:14;;;;;;;;;4.00;4.00;;;;;17.63;24.18;96866.78;6132702;28;97631;-63
2020/12/29 13:29:16;;;;;;;;;2.40;2.40;;;;;17.21;24.74;96871.69;6160370;28;96831;-62
2020/12/29 13:32:19;;;;;;;;;4.00;4.00;;;;;16.97;24.95;96895.75;6153978;28;97129;-62
2020/12/29 13:35:20;;;;;;;;;3.00;3.00;;;;;16.48;25.71;96891.19;6153279;28;97305;-62
2020/12/29 13:38:21;;;;;;;;;3.25;3.25;;;;;16.07;26.18;96891.34;6160062;28;97445;-61
2020/12/29 13:41:23;;;;;;;;;3.50;3.50;;;;;16.07;26.44;96906.84;6153737;28;97476;-62
2020/12/29 13:44:24;;;;;;;;;3.00;3.00;;;;;15.58;26.89;96892.91;6158007;28;97680;-62
2020/12/29 13:47:25;;;;;;;;;3.00;3.00;;;;;15.72;27.31;96932.81;6144567;28;97339;-61
2020/12/29 13:50:27;;;;;;;;;3.00;3.00;;;;;15.11;27.78;96914.91;6148930;28;98087;-61
2020/12/29 13:53:29;;;;;;;;;2.00;2.00;;;;;15.00;28.03;96930.56;6138784;28;99239;-62
2020/12/29 13:56:30;;;;;;;;;3.00;2.50;;;;;15.03;28.16;96932.69;6148790;28;97460;-61
2020/12/29 13:59:31;;;;;;;;;2.60;2.60;;;;;14.76;28.59;96953.53;6155084;28;98137;-63
2020/12/29 14:02:33;;;;;;;;;2.40;2.00;;;;;14.85;28.76;96932.75;6159183;28;98729;-61
2020/12/29 14:05:35;;;;;;;;;3.60;3.40;;;;;14.89;28.76;96952.75;6133340;28;97569;-61
2020/12/29 14:08:36;;;;;;;;;4.50;4.50;;;;;14.92;28.83;96950.25;6157073;28;96581;-61
2020/12/29 14:11:37;;;;;;;;;3.00;2.00;;;;;14.99;28.74;96966.16;6159593;28;97068;-61
2020/12/29 14:14:39;;;;;;;;;3.75;3.75;;;;;15.11;28.72;96963.78;6159679;28;97097;-61
2020/12/29 14:17:40;;;;;;;;;4.00;4.00;;;;;14.99;29.13;96963.44;6159497;28;97211;-62
2020/12/29 14:20:42;;;;;;;;;4.25;4.00;;;;;15.07;29.05;96976.31;6158763;28;97072;-61
2020/12/29 14:23:43;;;;;;;;;3.00;2.60;;;;;14.72;29.58;96937.81;6133264;28;97101;-61